Terminal Aerodrome Forecast
Issued by NWS

Home | Current Version | Previous Version | Text Only | Print | Product List | Glossary On
Versions: 1 2 3 4 5 6 7 8 9 10 11 12 13 14 15 16 17 18 19 20 21 22 23 24
000
FTUS41 KALY 201700
TAFPSF
TAF
KPSF 201731Z 2018/2118 17006KT P6SM SCT035 BKN250
     FM202300 19005KT P6SM VCSH OVC035 PROB30 2108/2112 3SM -SHRA BR
      SCT015 OVC025
     FM211200 VRB03KT 5SM BR VCSH BKN015 OVC025
     FM211500 13006KT P6SM VCSH BKN015 OVC025=

USA.gov is the U.S. government's official web portal to all federal, state and local government web resources and services.